Tularosa, New Mexico
Current Conditions -  °F | °C
As of 6:58 AM on Tuesday 27 Jan 2015 (Local Time) from KHMN Reporting Station
Clear Clear  
Wind Chill: 36°   Ceiling: Unl
Heat Index: 36°   Visibility: 10mi
Dew Point: 30°   Wind: 3mph
Humidity: 79%   Direction: 200°SSW
Pressure: 30.31"   Gusts: NA
Location:  33.07°N, 106.02°W
Report Text: KHMN 271358Z AUTO 20003KT 10SM CLR 02/M01 A3031 RMK AO2 SLP255 T00211012 $
Loading
Personal Weather Stations






























Interactive Weather Map New forecast layout! Learn more

10-Day Weather Forecast

Advertisements
Track Severe Weather on mobile